createdAt,value
2019-02-20T00:00:26.890Z,15.85
2019-02-20T00:02:55.474Z,17.67
2019-02-20T00:05:24.047Z,17.17
2019-02-20T00:07:52.631Z,16.45
2019-02-20T00:10:21.203Z,15.23
2019-02-20T00:12:49.792Z,16.45
2019-02-20T00:15:18.374Z,16.57
2019-02-20T00:17:46.948Z,17.20
2019-02-20T00:20:15.510Z,17.07
2019-02-20T00:22:44.106Z,17.80
2019-02-20T00:25:12.677Z,20.72
2019-02-20T00:27:41.289Z,18.25
2019-02-20T00:30:10.679Z,17.55
2019-02-20T00:32:39.254Z,17.10
2019-02-20T00:35:07.827Z,17.90
2019-02-20T00:37:36.411Z,18.02
2019-02-20T00:40:09.770Z,16.40
2019-02-20T00:42:38.381Z,18.65
2019-02-20T00:45:16.951Z,17.85
2019-02-20T00:47:49.744Z,18.65
2019-02-20T00:50:19.383Z,18.45
2019-02-20T00:52:50.272Z,18.98
2019-02-20T00:55:19.175Z,16.25
2019-02-20T00:57:47.771Z,18.15
2019-02-20T01:00:16.788Z,19.17
2019-02-20T01:02:45.384Z,18.62
2019-02-20T01:05:13.960Z,18.37
2019-02-20T01:07:42.553Z,18.32
2019-02-20T01:10:11.119Z,17.98
2019-02-20T01:12:39.711Z,18.37
2019-02-20T01:15:10.615Z,18.65
2019-02-20T01:17:39.302Z,17.98
2019-02-20T01:20:09.680Z,18.82
2019-02-20T01:22:38.279Z,20.43
2019-02-20T01:25:07.282Z,20.40
2019-02-20T01:27:35.900Z,20.85
2019-02-20T01:30:07.371Z,18.25
2019-02-20T01:32:35.976Z,17.25
2019-02-20T01:35:04.994Z,17.87
2019-02-20T01:37:33.590Z,20.08
2019-02-20T01:40:02.166Z,18.87
2019-02-20T01:42:30.767Z,18.75
2019-02-20T01:44:59.336Z,19.20
2019-02-20T01:47:27.925Z,20.82
2019-02-20T01:49:56.499Z,19.55
2019-02-20T01:52:25.091Z,21.25
2019-02-20T01:54:53.659Z,21.20
2019-02-20T01:57:22.251Z,21.20
2019-02-20T01:59:50.820Z,20.77
2019-02-20T02:02:19.415Z,20.43
2019-02-20T02:04:48.063Z,21.50
2019-02-20T02:07:16.654Z,20.77
2019-02-20T02:09:45.214Z,21.80
2019-02-20T02:12:13.813Z,20.92
2019-02-20T02:14:42.380Z,20.20
2019-02-20T02:17:10.976Z,18.62
2019-02-20T02:19:39.542Z,18.90
2019-02-20T02:22:08.114Z,18.98
2019-02-20T02:24:36.707Z,17.57
2019-02-20T02:27:05.270Z,18.32
2019-02-20T02:29:33.875Z,19.55
2019-02-20T02:32:02.458Z,18.20
2019-02-20T02:34:31.036Z,19.92
2019-02-20T02:36:59.611Z,22.30
2019-02-20T02:39:28.205Z,20.00
2019-02-20T02:41:56.770Z,22.25
2019-02-20T02:44:25.376Z,21.42
2019-02-20T02:46:53.937Z,23.50
2019-02-20T02:49:22.531Z,21.95
2019-02-20T02:51:51.095Z,19.52
2019-02-20T02:54:19.687Z,20.77
2019-02-20T02:56:48.256Z,19.05
2019-02-20T02:59:16.850Z,20.02
2019-02-20T03:01:45.420Z,21.30
2019-02-20T03:04:14.015Z,19.67
2019-02-20T03:06:42.588Z,20.57
2019-02-20T03:09:11.175Z,21.50
2019-02-20T03:11:39.748Z,20.17
2019-02-20T03:14:08.345Z,19.30
2019-02-20T03:16:36.915Z,20.10
2019-02-20T03:19:05.508Z,21.20
2019-02-20T03:21:34.080Z,19.32
2019-02-20T03:24:02.672Z,21.15
2019-02-20T03:26:31.249Z,20.82
2019-02-20T03:28:59.842Z,20.55
2019-02-20T03:31:28.426Z,19.02
2019-02-20T03:33:57.012Z,19.90
2019-02-20T03:36:25.571Z,19.80
2019-02-20T03:38:54.164Z,19.98
2019-02-20T03:41:22.768Z,19.60
2019-02-20T03:43:51.318Z,21.97
2019-02-20T03:46:19.904Z,22.02
2019-02-20T03:48:48.489Z,20.05
2019-02-20T03:51:17.053Z,17.98
2019-02-20T03:53:51.566Z,20.40
2019-02-20T03:56:16.299Z,19.05
2019-02-20T03:58:44.897Z,20.62
2019-02-20T04:01:13.458Z,21.85
2019-02-20T04:03:42.055Z,19.70
2019-02-20T04:06:10.618Z,21.30
2019-02-20T04:08:39.220Z,21.17
2019-02-20T04:11:07.779Z,18.80
2019-02-20T04:13:36.378Z,19.42
2019-02-20T04:16:04.955Z,18.90
2019-02-20T04:18:33.563Z,18.92
2019-02-20T04:21:02.119Z,21.75
2019-02-20T04:23:30.707Z,21.82
2019-02-20T04:25:59.287Z,20.95
2019-02-20T04:28:27.868Z,20.10
2019-02-20T04:30:56.439Z,18.32
2019-02-20T04:33:25.031Z,21.05
2019-02-20T04:35:53.608Z,20.40
2019-02-20T04:38:22.193Z,20.60
2019-02-20T04:40:50.758Z,19.77
2019-02-20T04:43:19.343Z,17.85
2019-02-20T04:45:47.915Z,18.30
2019-02-20T04:48:16.472Z,20.88
2019-02-20T04:50:45.059Z,21.45
2019-02-20T04:53:13.631Z,22.70
2019-02-20T04:55:42.225Z,22.62
2019-02-20T04:58:18.454Z,22.40
2019-02-20T05:00:47.047Z,23.87
2019-02-20T05:03:15.631Z,24.60
2019-02-20T05:05:44.215Z,22.82
2019-02-20T05:08:12.785Z,24.43
2019-02-20T05:10:41.370Z,22.10
2019-02-20T05:13:09.927Z,21.90
2019-02-20T05:15:38.502Z,23.52
2019-02-20T05:18:07.071Z,22.05
2019-02-20T05:20:35.661Z,21.80
2019-02-20T05:23:04.223Z,21.87
2019-02-20T05:25:32.816Z,24.57
2019-02-20T05:28:01.382Z,19.02
2019-02-20T05:30:29.977Z,21.42
2019-02-20T05:32:58.547Z,20.00
2019-02-20T05:35:27.126Z,20.97
2019-02-20T05:37:55.690Z,18.40
2019-02-20T05:40:24.291Z,18.23
2019-02-20T05:42:52.851Z,17.77
2019-02-20T05:45:21.443Z,20.75
2019-02-20T05:47:50.017Z,20.05
2019-02-20T05:50:18.621Z,21.50
2019-02-20T05:52:47.170Z,22.25
2019-02-20T05:55:15.764Z,20.88
2019-02-20T05:57:44.324Z,22.07
2019-02-20T06:00:14.015Z,21.42
2019-02-20T06:02:42.612Z,24.55
2019-02-20T06:05:11.175Z,24.05
2019-02-20T06:07:39.745Z,22.95
2019-02-20T06:10:09.366Z,24.80
2019-02-20T06:12:37.937Z,23.45
2019-02-20T06:15:09.067Z,25.12
2019-02-20T06:17:37.631Z,22.62
2019-02-20T06:20:08.550Z,22.40
2019-02-20T06:22:37.124Z,23.65
2019-02-20T06:25:06.067Z,21.95
2019-02-20T06:27:34.623Z,21.70
2019-02-20T06:30:04.453Z,21.57
2019-02-20T06:32:33.018Z,22.62
2019-02-20T06:35:01.603Z,21.35
2019-02-20T06:37:30.170Z,21.77
2019-02-20T06:39:58.759Z,24.50
2019-02-20T06:42:27.328Z,25.15
2019-02-20T06:44:55.911Z,22.42
2019-02-20T06:47:24.474Z,22.35
2019-02-20T06:49:53.063Z,23.32
2019-02-20T06:52:21.633Z,23.38
2019-02-20T06:54:53.923Z,21.85
2019-02-20T06:57:20.434Z,21.10
2019-02-20T06:59:49.030Z,24.75
2019-02-20T07:02:17.666Z,22.87
2019-02-20T07:05:22.942Z,21.42
2019-02-20T07:07:57.254Z,20.70
2019-02-20T07:10:49.995Z,20.70
2019-02-20T07:13:20.391Z,20.10
2019-02-20T07:15:54.571Z,20.82
2019-02-20T07:18:29.303Z,23.10
2019-02-20T07:21:09.923Z,20.72
2019-02-20T07:23:41.576Z,20.40
2019-02-20T07:26:46.572Z,21.87
2019-02-20T07:29:36.190Z,22.82
2019-02-20T07:32:04.759Z,23.20
2019-02-20T07:34:33.331Z,21.05
2019-02-20T07:37:01.915Z,21.60
2019-02-20T07:39:30.487Z,22.13
2019-02-20T07:41:59.071Z,20.27
2019-02-20T07:44:27.634Z,20.92
2019-02-20T07:46:56.223Z,20.50
2019-02-20T07:49:24.786Z,20.68
2019-02-20T07:51:53.372Z,21.55
2019-02-20T07:54:21.943Z,22.87
2019-02-20T07:56:50.527Z,20.48
2019-02-20T07:59:19.095Z,20.68
2019-02-20T08:01:47.678Z,21.15
2019-02-20T08:04:16.252Z,22.52
2019-02-20T08:06:44.831Z,24.72
2019-02-20T08:09:13.399Z,21.57
2019-02-20T08:11:41.982Z,22.13
2019-02-20T08:14:10.547Z,19.85
2019-02-20T08:16:39.140Z,20.68
2019-02-20T08:19:07.703Z,18.87
2019-02-20T08:21:36.291Z,17.98
2019-02-20T08:24:04.922Z,16.80
2019-02-20T08:26:33.511Z,17.80
2019-02-20T08:29:02.092Z,18.25
2019-02-20T08:31:30.670Z,15.40
2019-02-20T08:33:59.245Z,17.40
2019-02-20T08:36:27.818Z,15.80
2019-02-20T08:38:56.382Z,17.35
2019-02-20T08:41:24.975Z,17.02
2019-02-20T08:43:53.549Z,16.48
2019-02-20T08:46:22.130Z,15.53
2019-02-20T08:48:50.703Z,17.60
2019-02-20T08:51:19.306Z,17.48
2019-02-20T08:53:47.874Z,17.82
2019-02-20T08:56:16.462Z,15.30
2019-02-20T08:58:45.027Z,14.55
2019-02-20T09:01:13.620Z,14.78
2019-02-20T09:03:42.187Z,14.58
2019-02-20T09:06:10.786Z,15.38
2019-02-20T09:08:39.347Z,15.40
2019-02-20T09:11:07.931Z,14.25
2019-02-20T09:13:36.499Z,15.20
2019-02-20T09:16:05.083Z,15.08
2019-02-20T09:18:33.701Z,15.23
2019-02-20T09:21:02.243Z,15.63
2019-02-20T09:23:30.819Z,13.62
2019-02-20T09:25:59.406Z,15.10
2019-02-20T09:28:27.968Z,15.50
2019-02-20T09:30:56.561Z,13.43
2019-02-20T09:33:25.127Z,14.68
2019-02-20T09:35:53.717Z,14.28
2019-02-20T09:38:22.278Z,14.30
2019-02-20T09:40:50.870Z,12.10
2019-02-20T09:43:19.439Z,13.18
2019-02-20T09:45:48.023Z,13.90
2019-02-20T09:48:16.592Z,13.58
2019-02-20T09:50:45.179Z,14.05
2019-02-20T09:53:13.743Z,13.25
2019-02-20T09:55:50.906Z,13.95
2019-02-20T09:58:12.550Z,11.85
2019-02-20T10:00:41.126Z,13.50
2019-02-20T10:03:09.713Z,14.05
2019-02-20T10:05:38.309Z,14.25
2019-02-20T10:08:06.866Z,14.45
2019-02-20T10:10:35.431Z,14.73
2019-02-20T10:13:04.019Z,12.93
2019-02-20T10:15:32.583Z,13.13
2019-02-20T10:18:01.178Z,14.13
2019-02-20T10:20:29.739Z,13.80
2019-02-20T10:22:58.327Z,13.72
2019-02-20T10:25:26.900Z,14.33
2019-02-20T10:27:55.497Z,13.22
2019-02-20T10:30:24.068Z,12.90
2019-02-20T10:32:52.654Z,13.20
2019-02-20T10:35:21.216Z,12.60
2019-02-20T10:37:49.807Z,13.90
2019-02-20T10:40:18.370Z,13.50
2019-02-20T10:42:46.958Z,13.58
2019-02-20T10:45:15.526Z,14.58
2019-02-20T10:47:44.111Z,15.08
2019-02-20T10:50:13.824Z,13.75
2019-02-20T10:52:42.479Z,14.38
2019-02-20T10:55:11.321Z,14.07
2019-02-20T10:57:39.902Z,13.48
2019-02-20T11:00:24.258Z,16.05
2019-02-20T11:02:51.651Z,14.38
2019-02-20T11:05:20.283Z,15.18
2019-02-20T11:07:48.867Z,16.27
2019-02-20T11:10:17.430Z,14.13
2019-02-20T11:12:46.018Z,15.38
2019-02-20T11:15:14.659Z,13.10
2019-02-20T11:17:43.239Z,15.00
2019-02-20T11:20:13.676Z,14.47
2019-02-20T11:22:42.481Z,14.58
2019-02-20T11:25:12.566Z,15.48
2019-02-20T11:27:41.218Z,13.40
2019-02-20T11:30:15.931Z,14.95
2019-02-20T11:32:44.528Z,15.70
2019-02-20T11:35:13.095Z,14.65
2019-02-20T11:37:41.678Z,10.82
2019-02-20T11:40:10.916Z,12.25
2019-02-20T11:42:39.480Z,12.33
2019-02-20T11:45:12.835Z,11.55
2019-02-20T11:47:41.434Z,11.73
2019-02-20T11:50:10.987Z,9.63
2019-02-20T11:52:40.092Z,11.60
2019-02-20T11:55:13.609Z,11.38
2019-02-20T11:57:42.195Z,12.10
2019-02-20T12:00:13.836Z,10.30
2019-02-20T12:02:42.423Z,10.53
2019-02-20T12:05:11.128Z,9.70
2019-02-20T12:07:39.717Z,10.60
2019-02-20T12:10:14.433Z,10.40
2019-02-20T12:12:43.014Z,10.63
2019-02-20T12:15:11.648Z,9.15
2019-02-20T12:17:40.230Z,11.35
2019-02-20T12:20:09.442Z,10.65
2019-02-20T12:22:43.462Z,9.40
2019-02-20T12:25:13.239Z,10.35
2019-02-20T12:27:45.122Z,11.20
2019-02-20T12:30:13.826Z,11.48
2019-02-20T12:32:42.563Z,11.18
2019-02-20T12:35:11.266Z,11.60
2019-02-20T12:37:39.857Z,10.95
2019-02-20T12:40:11.567Z,12.37
2019-02-20T12:42:41.913Z,12.05
2019-02-20T12:45:10.435Z,12.23
2019-02-20T12:47:39.018Z,12.25
2019-02-20T12:50:09.934Z,11.78
2019-02-20T12:52:38.515Z,11.10
2019-02-20T12:55:08.018Z,13.80
2019-02-20T12:57:36.611Z,11.45
2019-02-20T13:00:10.913Z,11.90
2019-02-20T13:02:39.926Z,10.55
2019-02-20T13:05:09.308Z,10.63
2019-02-20T13:07:37.996Z,10.80
2019-02-20T13:10:08.195Z,8.73
2019-02-20T13:12:36.779Z,7.87
2019-02-20T13:15:07.951Z,9.00
2019-02-20T13:17:36.547Z,16.95
2019-02-20T13:20:06.751Z,10.10
2019-02-20T13:22:35.559Z,10.32
2019-02-20T13:25:05.059Z,7.62
2019-02-20T13:27:33.654Z,13.38
2019-02-20T13:30:02.224Z,11.78
2019-02-20T13:32:33.288Z,8.73
2019-02-20T13:35:01.947Z,12.53
2019-02-20T13:37:30.536Z,9.13
2019-02-20T13:39:59.100Z,8.20
2019-02-20T13:42:27.756Z,9.25
2019-02-20T13:44:56.321Z,8.35
2019-02-20T13:47:24.878Z,9.48
2019-02-20T13:49:53.531Z,8.00
2019-02-20T13:52:22.094Z,8.35
2019-02-20T13:54:50.685Z,12.80
2019-02-20T13:57:19.556Z,8.13
2019-02-20T13:59:49.711Z,9.48
2019-02-20T14:02:18.325Z,8.35
2019-02-20T14:04:46.907Z,6.60
2019-02-20T14:07:15.470Z,7.40
2019-02-20T14:09:44.059Z,7.15
2019-02-20T14:12:12.623Z,8.35
2019-02-20T14:14:41.211Z,6.80
2019-02-20T14:17:09.782Z,8.13
2019-02-20T14:19:38.370Z,8.33
2019-02-20T14:22:07.856Z,8.30
2019-02-20T14:24:36.524Z,7.42
2019-02-20T14:27:10.855Z,7.58
2019-02-20T14:29:35.318Z,7.35
2019-02-20T14:32:03.953Z,7.12
2019-02-20T14:34:32.539Z,6.85
2019-02-20T14:37:02.851Z,7.47
2019-02-20T14:39:31.340Z,6.90
2019-02-20T14:42:01.016Z,5.50
2019-02-20T14:44:29.686Z,7.10
2019-02-20T14:46:58.254Z,6.97
2019-02-20T14:49:26.835Z,6.10
2019-02-20T14:51:55.398Z,6.97
2019-02-20T14:54:23.991Z,7.40
2019-02-20T14:56:52.554Z,6.30
2019-02-20T14:59:21.140Z,5.67
2019-02-20T15:01:50.110Z,15.03
2019-02-20T15:04:18.698Z,5.85
2019-02-20T15:06:47.259Z,6.12
2019-02-20T15:09:15.842Z,7.37
2019-02-20T15:11:44.407Z,10.20
2019-02-20T15:14:12.993Z,11.10
2019-02-20T15:16:41.556Z,6.40
2019-02-20T15:19:10.338Z,7.37
2019-02-20T15:21:38.907Z,6.95
2019-02-20T15:24:07.488Z,5.90
2019-02-20T15:26:36.052Z,6.53
2019-02-20T15:29:04.707Z,10.00
2019-02-20T15:31:34.059Z,6.62
2019-02-20T15:34:02.864Z,5.12
2019-02-20T15:36:31.428Z,5.67
2019-02-20T15:39:00.011Z,5.45
2019-02-20T15:41:28.579Z,6.10
2019-02-20T15:43:58.007Z,6.85
2019-02-20T15:46:26.567Z,8.63
2019-02-20T15:48:55.150Z,7.47
2019-02-20T15:51:24.122Z,10.82
2019-02-20T15:53:52.711Z,8.70
2019-02-20T15:56:21.281Z,6.03
2019-02-20T15:58:49.867Z,7.50
2019-02-20T16:01:18.436Z,10.08
2019-02-20T16:03:47.019Z,9.88
2019-02-20T16:06:15.587Z,9.43
2019-02-20T16:08:44.476Z,10.18
2019-02-20T16:11:13.045Z,9.33
2019-02-20T16:13:41.623Z,9.78
2019-02-20T16:16:10.186Z,8.60
2019-02-20T16:18:38.747Z,9.83
2019-02-20T16:21:07.331Z,9.60
2019-02-20T16:23:35.899Z,9.80
2019-02-20T16:26:04.547Z,8.20
2019-02-20T16:28:34.038Z,8.75
2019-02-20T16:31:02.790Z,8.78
2019-02-20T16:33:31.363Z,9.15
2019-02-20T16:35:59.946Z,9.35
2019-02-20T16:38:28.511Z,8.05
2019-02-20T16:40:57.395Z,9.30
2019-02-20T16:43:25.959Z,8.45
2019-02-20T16:45:54.626Z,11.03
2019-02-20T16:48:23.187Z,10.75
2019-02-20T16:50:51.771Z,10.98
2019-02-20T16:53:20.377Z,11.63
2019-02-20T16:55:48.940Z,11.70
2019-02-20T16:58:17.880Z,10.68
2019-02-20T17:00:46.467Z,19.40
2019-02-20T17:03:15.039Z,13.28
2019-02-20T17:05:43.623Z,14.23
2019-02-20T17:08:12.196Z,13.88
2019-02-20T17:10:40.795Z,12.90
2019-02-20T17:13:09.350Z,11.48
2019-02-20T17:15:37.935Z,11.57
2019-02-20T17:18:06.503Z,11.15
2019-02-20T17:20:35.098Z,10.40
2019-02-20T17:23:03.662Z,10.72
2019-02-20T17:25:32.255Z,11.40
2019-02-20T17:28:05.667Z,11.30
2019-02-20T17:30:31.063Z,11.80
2019-02-20T17:32:59.628Z,10.63
2019-02-20T17:35:28.221Z,11.20
2019-02-20T17:37:56.785Z,10.75
2019-02-20T17:40:25.438Z,10.98
2019-02-20T17:42:54.015Z,11.85
2019-02-20T17:45:22.594Z,11.97
2019-02-20T17:47:51.159Z,11.38
2019-02-20T17:50:27.524Z,12.88
2019-02-20T17:52:56.094Z,12.25
2019-02-20T17:55:24.687Z,12.45
2019-02-20T17:57:53.249Z,12.95
2019-02-20T18:00:23.774Z,12.10
2019-02-20T18:02:52.335Z,13.15
2019-02-20T18:05:20.927Z,14.43
2019-02-20T18:07:51.840Z,12.90
2019-02-20T18:10:19.732Z,11.90
2019-02-20T18:12:48.295Z,11.65
2019-02-20T18:15:16.879Z,12.95
2019-02-20T18:17:45.444Z,11.75
2019-02-20T18:20:14.101Z,11.57
2019-02-20T18:22:43.789Z,11.25
2019-02-20T18:25:12.947Z,11.78
2019-02-20T18:27:41.511Z,11.73
2019-02-20T18:30:12.435Z,11.90
2019-02-20T18:32:40.998Z,13.95
2019-02-20T18:35:11.423Z,13.22
2019-02-20T18:37:39.994Z,13.60
2019-02-20T18:40:16.449Z,12.90
2019-02-20T18:42:45.003Z,13.70
2019-02-20T18:45:15.051Z,12.45
2019-02-20T18:47:43.607Z,14.25
2019-02-20T18:50:14.315Z,13.13
2019-02-20T18:52:42.858Z,12.50
2019-02-20T18:55:12.992Z,13.03
2019-02-20T18:57:41.550Z,14.13
2019-02-20T19:00:22.786Z,14.03
2019-02-20T19:02:51.339Z,12.78
2019-02-20T19:05:20.081Z,13.80
2019-02-20T19:07:48.624Z,12.20
2019-02-20T19:10:26.424Z,11.80
2019-02-20T19:13:10.259Z,12.58
2019-02-20T19:15:56.678Z,14.83
2019-02-20T19:19:02.469Z,15.25
2019-02-20T19:21:34.863Z,13.90
2019-02-20T19:24:21.382Z,14.10
2019-02-20T19:26:55.465Z,13.72
2019-02-20T19:29:43.798Z,15.40
2019-02-20T19:32:38.291Z,13.58
2019-02-20T19:35:37.116Z,14.33
2019-02-20T19:38:40.383Z,13.32
2019-02-20T19:41:17.563Z,13.10
2019-02-20T19:43:49.233Z,12.00
2019-02-20T19:46:37.263Z,13.15
2019-02-20T19:49:25.858Z,12.25
2019-02-20T19:52:00.247Z,13.48
2019-02-20T19:54:31.914Z,14.58
2019-02-20T19:57:21.461Z,14.58
2019-02-20T19:59:53.108Z,12.70
2019-02-20T20:02:42.733Z,14.93
2019-02-20T20:05:35.619Z,14.00
2019-02-20T20:08:26.509Z,14.05
2019-02-20T20:11:18.883Z,13.05
2019-02-20T20:13:56.423Z,14.98
2019-02-20T20:16:36.955Z,15.03
2019-02-20T20:19:28.039Z,14.20
2019-02-20T20:22:30.867Z,14.63
2019-02-20T20:25:19.244Z,14.98
2019-02-20T20:28:05.737Z,13.62
2019-02-20T20:30:43.048Z,15.53
2019-02-20T20:33:49.421Z,14.73
2019-02-20T20:36:37.808Z,15.78
2019-02-20T20:39:30.129Z,15.90
2019-02-20T20:42:36.957Z,15.60
2019-02-20T20:45:29.155Z,14.78
2019-02-20T20:48:12.014Z,16.62
2019-02-20T20:51:13.043Z,15.78
2019-02-20T20:53:56.139Z,15.35
2019-02-20T20:56:29.978Z,15.43
2019-02-20T20:59:01.685Z,16.20
2019-02-20T21:01:36.676Z,15.50
2019-02-20T21:04:29.781Z,15.72
2019-02-20T21:07:01.618Z,15.55
2019-02-20T21:09:33.351Z,14.65
2019-02-20T21:12:05.024Z,15.48
2019-02-20T21:14:48.794Z,17.10
2019-02-20T21:17:26.407Z,15.65
2019-02-20T21:19:58.055Z,16.67
2019-02-20T21:22:35.206Z,17.80
2019-02-20T21:25:35.587Z,18.17
2019-02-20T21:28:24.896Z,19.67
2019-02-20T21:31:01.751Z,18.42
2019-02-20T21:33:42.487Z,18.20
2019-02-20T21:36:25.983Z,16.20
2019-02-20T21:39:04.406Z,17.48
2019-02-20T21:41:36.070Z,18.85
2019-02-20T21:44:16.460Z,16.70
2019-02-20T21:46:50.803Z,19.20
2019-02-20T21:49:38.871Z,19.85
2019-02-20T21:52:28.347Z,19.48
2019-02-20T21:55:05.187Z,20.72
2019-02-20T21:58:02.616Z,21.10
2019-02-20T22:01:07.505Z,19.67
2019-02-20T22:04:06.354Z,18.98
2019-02-20T22:06:50.100Z,20.20
2019-02-20T22:09:30.501Z,17.95
2019-02-20T22:12:11.055Z,21.57
2019-02-20T22:14:48.469Z,19.70
2019-02-20T22:17:20.136Z,18.37
2019-02-20T22:20:26.742Z,17.98
2019-02-20T22:23:07.575Z,18.48
2019-02-20T22:25:51.442Z,16.87
2019-02-20T22:28:51.955Z,16.45
2019-02-20T22:31:39.800Z,17.12
2019-02-20T22:34:17.319Z,16.60
2019-02-20T22:37:10.031Z,16.30
2019-02-20T22:39:50.987Z,16.73
2019-02-20T22:42:36.791Z,16.50
2019-02-20T22:45:30.591Z,17.30
2019-02-20T22:48:30.338Z,16.20
2019-02-20T22:51:21.356Z,17.27
2019-02-20T22:54:04.772Z,16.30
2019-02-20T22:56:57.886Z,16.93
2019-02-20T22:59:32.047Z,16.55
2019-02-20T23:02:03.708Z,15.78
2019-02-20T23:04:38.238Z,16.20
2019-02-20T23:07:15.376Z,15.98
2019-02-20T23:09:55.967Z,16.67
2019-02-20T23:12:45.723Z,16.40
2019-02-20T23:15:14.290Z,15.65
2019-02-20T23:17:42.870Z,16.73
2019-02-20T23:20:11.444Z,14.35
2019-02-20T23:22:40.036Z,16.80
2019-02-20T23:25:08.605Z,17.70
2019-02-20T23:27:37.191Z,15.40
2019-02-20T23:30:13.009Z,17.25
2019-02-20T23:32:39.398Z,16.30
2019-02-20T23:35:09.312Z,16.32
2019-02-20T23:37:37.899Z,15.63
2019-02-20T23:40:09.303Z,14.53
2019-02-20T23:42:37.887Z,16.25
2019-02-20T23:45:08.390Z,16.10
2019-02-20T23:47:36.983Z,15.03
2019-02-20T23:50:07.506Z,16.35
2019-02-20T23:52:36.091Z,14.10
2019-02-20T23:55:06.098Z,17.27
2019-02-20T23:57:34.682Z,14.90
